| time (UTC) | temp C | wind direction | speed KPH | gust KPH | rain 1hr cm | rain 24hr cm | rain mn cm | humidity % | barometer mb |
| 20260510040053 | 8 | 148 | 8.0 | 17.7 | 0.00 | 0.00 | 0.00 | 71 | 1024.0 |
| 20260510034550 | 8 | 198 | 9.7 | 20.9 | 0.00 | 0.00 | 0.00 | 71 | 1023.4 |
| 20260510033054 | 8 | 128 | 11.3 | 22.5 | 0.00 | 0.00 | 0.00 | 69 | 1023.4 |
| 20260510031554 | 8 | 121 | 14.5 | 30.6 | 0.00 | 0.00 | 0.00 | 69 | 1023.6 |
| 20260510030053 | 9 | 118 | 22.5 | 38.6 | 0.00 | 0.00 | 0.00 | 70 | 1022.7 |
| 20260510024552 | 9 | 158 | 16.1 | 33.8 | 0.00 | 0.00 | 0.00 | 71 | 1021.9 |
| 20260510023049 | 9 | 129 | 22.5 | 41.8 | 0.00 | 0.00 | 0.00 | 71 | 1020.9 |
| 20260510021550 | 10 | 117 | 20.9 | 46.7 | 0.00 | 0.00 | 0.00 | 69 | 1020.2 |
| 20260510020050 | 10 | 131 | 25.7 | 41.8 | 0.00 | 0.00 | 0.00 | 68 | 1019.8 |
| 20260510014605 | 11 | 128 | 22.5 | 48.3 | 0.00 | 0.00 | 0.00 | 65 | 1019.4 |
| 20260510013049 | 11 | 124 | 29.0 | 49.9 | 0.00 | 0.00 | 0.00 | 61 | 1018.9 |
| 20260510011549 | 12 | 117 | 27.4 | 67.6 | 0.00 | 0.00 | 0.00 | 56 | 1017.8 |
| 20260510010049 | 15 | 125 | 27.4 | 66.0 | 0.00 | 0.00 | 0.00 | 46 | 1016.7 |
| 20260510004546 | 21 | 129 | 4.8 | 11.3 | 0.00 | 0.00 | 0.00 | 21 | 1014.6 |
| 20260510003049 | 21 | 139 | 4.8 | 14.5 | 0.00 | 0.00 | 0.00 | 21 | 1014.3 |
| 20260510001554 | 20 | 178 | 1.6 | 6.4 | 0.00 | 0.00 | 0.00 | 23 | 1014.0 |
| 20260510000059 | 21 | 167 | 4.8 | 11.3 | 0.00 | 0.00 | 0.00 | 20 | 1013.8 |
| 20260509234554 | 21 | 196 | 1.6 | 4.8 | 0.00 | 0.00 | 0.00 | 19 | 1013.7 |
| 20260509233055 | 21 | 206 | 1.6 | 8.0 | 0.00 | 0.00 | 0.00 | 19 | 1013.6 |
| 20260509231556 | 21 | 207 | 0.0 | 4.8 | 0.00 | 0.00 | 0.00 | 19 | 1013.5 |
| 20260509230053 | 21 | 230 | 1.6 | 4.8 | 0.00 | 0.00 | 0.00 | 19 | 1013.4 |
| 20260509224600 | 21 | 192 | 1.6 | 4.8 | 0.00 | 0.00 | 0.00 | 20 | 1013.5 |
| 20260509223059 | 22 | 257 | 0.0 | 6.4 | 0.00 | 0.00 | 0.00 | 19 | 1013.4 |
| 20260509221603 | 22 | 321 | 1.6 | 6.4 | 0.00 | 0.00 | 0.00 | 20 | 1013.2 |
| 20260509220055 | 22 | 279 | 3.2 | 11.3 | 0.00 | 0.00 | 0.00 | 20 | 1013.4 |
| 20260509214553 | 22 | 240 | 3.2 | 11.3 | 0.00 | 0.00 | 0.00 | 20 | 1013.3 |
| 20260509213049 | 21 | 0 | 1.6 | 8.0 | 0.00 | 0.00 | 0.00 | 20 | 1013.4 |
| 20260509211553 | 21 | 310 | 1.6 | 14.5 | 0.00 | 0.00 | 0.00 | 20 | 1013.5 |
| 20260509210053 | 21 | 241 | 1.6 | 8.0 | 0.00 | 0.00 | 0.00 | 21 | 1013.4 |
| 20260509204556 | 21 | 210 | 6.4 | 14.5 | 0.00 | 0.00 | 0.00 | 21 | 1013.4 |
| 20260509203047 | 22 | 276 | 1.6 | 11.3 | 0.00 | 0.00 | 0.00 | 19 | 1013.3 |
| 20260509201554 | 22 | 264 | 3.2 | 12.9 | 0.00 | 0.00 | 0.00 | 21 | 1013.4 |
| 20260509200100 | 21 | 165 | 6.4 | 16.1 | 0.00 | 0.00 | 0.00 | 21 | 1013.6 |
| 20260509194548 | 22 | 217 | 8.0 | 17.7 | 0.00 | 0.00 | 0.00 | 20 | 1013.5 |
| 20260509193051 | 21 | 181 | 4.8 | 22.5 | 0.00 | 0.00 | 0.00 | 20 | 1013.8 |
| 20260509191549 | 22 | 210 | 1.6 | 19.3 | 0.00 | 0.00 | 0.00 | 20 | 1013.9 |
| 20260509190104 | 22 | 221 | 6.4 | 20.9 | 0.00 | 0.00 | 0.00 | 20 | 1013.9 |
| 20260509184548 | 22 | 201 | 6.4 | 30.6 | 0.00 | 0.00 | 0.00 | 22 | 1013.6 |
| 20260509183047 | 21 | 113 | 27.4 | 46.7 | 0.00 | 0.00 | 0.00 | 13 | 1014.1 |
| 20260509181551 | 21 | 94 | 19.3 | 37.0 | 0.00 | 0.00 | 0.00 | 14 | 1014.0 |
| 20260509180059 | 20 | 120 | 29.0 | 49.9 | 0.00 | 0.00 | 0.00 | 15 | 1014.2 |
| 20260509174553 | 20 | 56 | 30.6 | 51.5 | 0.00 | 0.00 | 0.00 | 14 | 1014.3 |
| 20260509173050 | 20 | 96 | 20.9 | 56.3 | 0.00 | 0.00 | 0.00 | 16 | 1014.2 |
| 20260509171556 | 20 | 115 | 30.6 | 51.5 | 0.00 | 0.00 | 0.00 | 15 | 1014.4 |
| 20260509164556 | 19 | 97 | 37.0 | 57.9 | 0.00 | 0.00 | 0.00 | 16 | 1014.1 |
| 20260509163057 | 20 | 162 | 24.1 | 43.5 | 0.00 | 0.00 | 0.00 | 18 | 1014.1 |
| 20260509161558 | 19 | 80 | 17.7 | 32.2 | 0.00 | 0.00 | 0.00 | 20 | 1014.0 |
| 20260509160053 | 18 | 123 | 8.0 | 30.6 | 0.00 | 0.00 | 0.00 | 20 | 1014.1 |
| 20260509154558 | 18 | 122 | 14.5 | 27.4 | 0.00 | 0.00 | 0.00 | 20 | 1014.1 |
| 20260509153100 | 18 | 127 | 16.1 | 33.8 | 0.00 | 0.00 | 0.00 | 19 | 1014.2 |
| 20260509151552 | 18 | 61 | 16.1 | 29.0 | 0.00 | 0.00 | 0.00 | 20 | 1014.5 |
| 20260509150049 | 18 | 105 | 14.5 | 30.6 | 0.00 | 0.00 | 0.00 | 20 | 1014.6 |
| 20260509144549 | 17 | 110 | 20.9 | 40.2 | 0.00 | 0.00 | 0.00 | 22 | 1014.5 |
| 20260509143049 | 16 | 127 | 22.5 | 37.0 | 0.00 | 0.00 | 0.00 | 23 | 1014.2 |
| 20260509141547 | 16 | 96 | 24.1 | 37.0 | 0.00 | 0.00 | 0.00 | 22 | 1014.0 |
| 20260509140053 | 15 | 80 | 22.5 | 38.6 | 0.00 | 0.00 | 0.00 | 24 | 1014.0 |
| 20260509134624 | 15 | 122 | 12.9 | 22.5 | 0.00 | 0.00 | 0.00 | 27 | 1014.4 |
| 20260509133052 | -17 | 0.0 | 0.0 | 0.00 | 0.00 | 0.00 | 1014.7 | ||
| 20260509131552 | -17 | 0.0 | 0.0 | 0.00 | 0.00 | 0.00 | 1014.5 | ||
| 20260509130047 | -17 | 0.0 | 0.0 | 0.00 | 0.00 | 0.00 | 1014.2 | ||
| 20260509124551 | -17 | 0.0 | 0.0 | 0.00 | 0.00 | 0.00 | 1014.0 | ||
| 20260509123052 | 15 | 1.6 | 0.0 | 0.00 | 0.00 | 0.00 | 100 | 1013.5 | |
| 20260509121553 | 15 | 86 | 3.2 | 17.7 | 0.00 | 0.00 | 0.00 | 31 | 1013.6 |
| 20260509120049 | 15 | 89 | 3.2 | 16.1 | 0.00 | 0.00 | 0.00 | 30 | 1013.5 |
| 20260509114558 | 15 | 86 | 4.8 | 14.5 | 0.00 | 0.00 | 0.00 | 31 | 1013.4 |
| 20260509113100 | 13 | 0 | 0.0 | 1.6 | 0.00 | 0.00 | 0.00 | 35 | 1013.2 |
| 20260509111555 | 13 | 131 | 1.6 | 6.4 | 0.00 | 0.00 | 0.00 | 34 | 1013.0 |
| 20260509110104 | 14 | 233 | 3.2 | 6.4 | 0.00 | 0.00 | 0.00 | 32 | 1012.9 |
| 20260509104549 | 13 | 112 | 0.0 | 3.2 | 0.00 | 0.00 | 0.00 | 34 | 1012.9 |
| 20260509103103 | 13 | 112 | 0.0 | 6.4 | 0.00 | 0.00 | 0.00 | 34 | 1013.0 |
| 20260509101604 | 14 | 113 | 0.0 | 3.2 | 0.00 | 0.00 | 0.00 | 33 | 1013.0 |
| 20260509100056 | 15 | 121 | 3.2 | 12.9 | 0.00 | 0.00 | 0.00 | 31 | 1013.2 |
| 20260509094550 | 13 | 0 | 0.0 | 9.7 | 0.00 | 0.00 | 0.00 | 38 | 1013.2 |
| 20260509093059 | 13 | 94 | 1.6 | 6.4 | 0.00 | 0.00 | 0.00 | 38 | 1013.2 |
| 20260509091557 | 13 | 96 | 0.0 | 3.2 | 0.00 | 0.00 | 0.00 | 38 | 1013.0 |
| 20260509090052 | 15 | 120 | 6.4 | 9.7 | 0.00 | 0.00 | 0.00 | 35 | 1012.9 |
| 20260509084554 | 15 | 127 | 3.2 | 8.0 | 0.00 | 0.00 | 0.00 | 33 | 1012.9 |
| 20260509083049 | 15 | 122 | 6.4 | 14.5 | 0.00 | 0.00 | 0.00 | 33 | 1012.8 |
| 20260509081551 | 15 | 78 | 0.0 | 8.0 | 0.00 | 0.00 | 0.00 | 35 | 1013.0 |
| 20260509080052 | 14 | 86 | 3.2 | 16.1 | 0.00 | 0.00 | 0.00 | 37 | 1012.9 |
| 20260509074603 | 13 | 324 | 0.0 | 1.6 | 0.00 | 0.00 | 0.00 | 47 | 1013.0 |
| 20260509073055 | 13 | 324 | 0.0 | 3.2 | 0.00 | 0.00 | 0.00 | 45 | 1013.0 |
| 20260509071555 | 13 | 323 | 0.0 | 6.4 | 0.00 | 0.00 | 0.00 | 48 | 1013.1 |
| 20260509070049 | 13 | 323 | 0.0 | 3.2 | 0.00 | 0.00 | 0.00 | 47 | 1013.2 |
| 20260509064558 | 12 | 0 | 0.0 | 1.6 | 0.00 | 0.00 | 0.00 | 50 | 1013.4 |
| 20260509063049 | 13 | 322 | 0.0 | 6.4 | 0.00 | 0.00 | 0.00 | 50 | 1013.4 |
| 20260509061559 | 12 | 0 | 0.0 | 4.8 | 0.00 | 0.00 | 0.00 | 51 | 1013.6 |
| 20260509060053 | 12 | 0 | 0.0 | 3.2 | 0.00 | 0.00 | 0.00 | 52 | 1013.8 |
| 20260509054554 | 13 | 323 | 3.2 | 4.8 | 0.00 | 0.00 | 0.00 | 52 | 1013.8 |
| 20260509053054 | 13 | 315 | 1.6 | 3.2 | 0.00 | 0.00 | 0.00 | 50 | 1013.8 |
| 20260509051556 | 14 | 321 | 1.6 | 6.4 | 0.00 | 0.00 | 0.00 | 49 | 1014.0 |
| 20260509050048 | 14 | 314 | 3.2 | 11.3 | 0.00 | 0.00 | 0.00 | 48 | 1014.2 |
| 20260509044546 | 14 | 314 | 4.8 | 8.0 | 0.00 | 0.00 | 0.00 | 48 | 1014.4 |
| 20260509043056 | 14 | 313 | 1.6 | 4.8 | 0.00 | 0.00 | 0.00 | 48 | 1015.0 |
| 20260509041550 | 14 | 313 | 1.6 | 4.8 | 0.00 | 0.00 | 0.00 | 49 | 1015.0 |